Time;durP1;ratioP1;P1;durP2;ratioP2;P2;SDS_P1;SDS_P2;PMS_P1;PMS_P2;Temp;Humidity;BMP_temperature;BMP_pressure;BME280_temperature;BME280_humidity;BME280_pressure;Samples;Min_cycle;Max_cycle;Signal;HPM_P1;HPM_P2
2023/09/30 00:00:04;;;;;;;7.00;4.28;;;;;;;14.80;67.63;101879.34;679887;29;1243;-91
2023/09/30 00:00:33;;;;;;;12.48;4.80;;;;;;;14.84;67.48;101876.81;685123;28;1357;-91
2023/09/30 00:00:53;;;;;;;15.02;5.05;;;;;;;14.83;67.44;101880.28;685371;28;1240;-91
2023/09/30 00:01:14;;;;;;;13.25;5.50;;;;;;;14.90;67.79;101884.88;682648;29;1202;-91
2023/09/30 00:01:35;;;;;;;9.20;4.95;;;;;;;14.92;67.40;101894.56;684991;28;1277;-91
2023/09/30 00:01:56;;;;;;;6.97;4.65;;;;;;;14.89;67.43;101883.09;679930;29;1285;-91
2023/09/30 00:02:17;;;;;;;6.97;4.30;;;;;;;14.91;67.48;101894.53;687377;28;1295;-92
2023/09/30 00:02:38;;;;;;;7.90;4.68;;;;;;;14.88;67.53;101884.81;685667;28;1310;-92
2023/09/30 00:02:59;;;;;;;9.03;4.80;;;;;;;14.89;67.12;101888.34;678618;29;1256;-91
2023/09/30 00:03:20;;;;;;;8.35;4.72;;;;;;;14.90;67.18;101880.50;680069;29;1335;-91
2023/09/30 00:03:41;;;;;;;7.85;4.47;;;;;;;14.85;67.11;101873.31;680387;29;1197;-91
2023/09/30 00:04:03;;;;;;;8.27;4.78;;;;;;;14.79;67.39;101869.69;681807;28;1533;-91
2023/09/30 00:04:23;;;;;;;8.93;4.90;;;;;;;14.85;67.25;101883.84;682661;29;1384;-91
2023/09/30 00:04:44;;;;;;;9.30;5.10;;;;;;;14.88;67.20;101894.44;682787;28;1227;-91
2023/09/30 00:05:05;;;;;;;9.93;5.10;;;;;;;14.80;67.38;101881.97;679923;29;1151;-91
2023/09/30 00:05:26;;;;;;;11.98;5.18;;;;;;;14.87;67.21;101888.28;682838;28;1377;-91
2023/09/30 00:05:46;;;;;;;12.25;5.00;;;;;;;14.78;67.49;101882.78;685767;28;1321;-91
2023/09/30 00:06:07;;;;;;;14.40;5.17;;;;;;;14.82;67.25;101884.66;684379;28;1408;-91
2023/09/30 00:06:28;;;;;;;11.40;5.00;;;;;;;14.82;67.44;101883.75;682760;29;1185;-91
2023/09/30 00:06:49;;;;;;;11.27;4.70;;;;;;;14.80;67.38;101892.50;680274;29;1042;-90
2023/09/30 00:07:10;;;;;;;8.70;4.78;;;;;;;14.83;67.44;101903.94;683873;28;1536;-91
2023/09/30 00:07:31;;;;;;;8.45;5.00;;;;;;;14.77;67.37;101881.88;682528;28;1977;-92
2023/09/30 00:07:51;;;;;;;7.40;4.82;;;;;;;14.76;67.40;101889.75;682944;28;1314;-92
2023/09/30 00:08:12;;;;;;;7.68;4.30;;;;;;;14.79;67.46;101890.72;687341;28;1182;-92
2023/09/30 00:08:33;;;;;;;7.25;3.90;;;;;;;14.78;67.57;101891.56;685577;28;1385;-91
2023/09/30 00:08:54;;;;;;;8.33;4.00;;;;;;;14.76;67.55;101885.34;683867;28;1596;-91
2023/09/30 00:09:15;;;;;;;9.10;4.27;;;;;;;14.82;67.55;101894.28;682744;28;1418;-91
2023/09/30 00:09:35;;;;;;;10.68;4.20;;;;;;;14.77;67.73;101884.50;683022;28;1395;-91
2023/09/30 00:09:56;;;;;;;12.85;4.30;;;;;;;14.79;67.77;101888.09;685441;28;1010;-91
2023/09/30 00:10:17;;;;;;;14.05;4.20;;;;;;;14.79;67.77;101888.09;685260;28;1287;-91
2023/09/30 00:10:38;;;;;;;14.10;4.65;;;;;;;14.82;67.78;101892.53;682978;29;1265;-91
2023/09/30 00:11:00;;;;;;;10.47;4.70;;;;;;;14.84;67.63;101888.22;687840;28;1506;-90
2023/09/30 00:11:21;;;;;;;8.25;4.72;;;;;;;14.88;67.81;101897.06;682641;29;1290;-91
2023/09/30 00:11:42;;;;;;;6.65;4.38;;;;;;;14.86;67.79;101885.63;687499;28;1388;-91
2023/09/30 00:12:04;;;;;;;6.80;4.22;;;;;;;14.79;67.77;101885.47;685024;28;1185;-91
2023/09/30 00:12:24;;;;;;;12.32;4.57;;;;;;;14.98;67.86;101911.38;680937;29;1260;-91
2023/09/30 00:12:45;;;;;;;15.50;4.88;;;;;;;14.91;67.60;101897.16;680004;29;1146;-91
2023/09/30 00:13:06;;;;;;;16.73;5.00;;;;;;;14.90;67.71;101896.28;683658;28;1262;-90
2023/09/30 00:13:28;;;;;;;12.57;4.80;;;;;;;14.92;67.86;101888.41;684350;28;1178;-92
2023/09/30 00:13:49;;;;;;;12.35;4.95;;;;;;;14.92;67.67;101888.41;685600;28;1229;-90
2023/09/30 00:14:09;;;;;;;11.40;4.80;;;;;;;14.98;67.61;101891.22;684958;28;1262;-90
2023/09/30 00:14:30;;;;;;;11.27;5.15;;;;;;;14.92;67.66;101886.69;684912;28;1068;-90
2023/09/30 00:14:51;;;;;;;11.63;5.53;;;;;;;14.98;67.62;101893.84;682729;28;1264;-91
2023/09/30 00:15:12;;;;;;;10.80;5.60;;;;;;;15.01;67.61;101891.28;681880;29;1310;-91
2023/09/30 00:15:35;;;;;;;15.40;5.53;;;;;;;15.01;67.57;101890.41;682793;29;1259;-91
2023/09/30 00:15:56;;;;;;;13.97;4.90;;;;;;;15.03;67.54;101894.88;682439;28;1295;-91
2023/09/30 00:16:18;;;;;;;12.80;4.93;;;;;;;15.00;67.32;101886.00;685017;28;1197;-91
2023/09/30 00:16:38;;;;;;;12.98;4.93;;;;;;;15.04;67.34;101891.41;683133;29;1384;-91
2023/09/30 00:17:00;;;;;;;12.35;4.97;;;;;;;15.04;67.44;101894.03;679951;29;1158;-90
2023/09/30 00:17:20;;;;;;;9.73;4.68;;;;;;;14.99;67.38;101886.88;682673;28;1260;-90
2023/09/30 00:17:41;;;;;;;7.68;5.00;;;;;;;14.99;67.31;101886.88;682576;29;1197;-91
2023/09/30 00:18:02;;;;;;;7.95;5.05;;;;;;;14.99;67.45;101887.75;685620;28;1198;-90
2023/09/30 00:18:23;;;;;;;7.82;5.10;;;;;;;15.02;67.47;101892.19;681073;29;1480;-91
2023/09/30 00:18:44;;;;;;;8.90;5.07;;;;;;;14.95;67.26;101880.63;677916;29;1188;-91
2023/09/30 00:19:05;;;;;;;8.10;4.90;;;;;;;14.95;67.31;101896.41;679737;29;1293;-91
2023/09/30 00:19:26;;;;;;;8.45;4.90;;;;;;;14.97;67.39;101899.06;680083;29;1225;-89
2023/09/30 00:19:49;;;;;;;7.10;4.53;;;;;;;14.94;67.25;101900.75;682712;29;1495;-89
2023/09/30 00:20:10;;;;;;;8.63;4.68;;;;;;;14.93;67.34;101887.56;685139;28;1355;-91
2023/09/30 00:20:31;;;;;;;10.40;5.20;;;;;;;14.92;67.59;101896.31;681878;29;1227;-91
2023/09/30 00:20:52;;;;;;;11.93;5.43;;;;;;;14.96;67.58;101906.06;679552;29;1205;-91
2023/09/30 00:21:15;;;;;;;12.23;5.80;;;;;;;14.89;67.60;101896.22;682571;29;1190;-90
2023/09/30 00:21:35;;;;;;;11.68;5.70;;;;;;;14.92;67.58;101898.94;682457;29;1253;-90
2023/09/30 00:21:56;;;;;;;9.60;5.10;;;;;;;14.94;67.55;101905.16;682411;28;1185;-90
2023/09/30 00:22:16;;;;;;;8.50;4.50;;;;;;;14.85;67.56;101891.72;685184;28;1211;-91
2023/09/30 00:22:37;;;;;;;8.20;4.20;;;;;;;14.90;67.62;101903.25;685435;28;1304;-92
2023/09/30 00:22:58;;;;;;;7.13;4.10;;;;;;;14.85;67.55;101894.34;683066;28;1256;-90
2023/09/30 00:23:21;;;;;;;9.02;4.80;;;;;;;14.88;67.62;101894.44;682697;29;1231;-91
2023/09/30 00:23:42;;;;;;;9.55;4.97;;;;;;;14.87;67.56;101893.53;678227;29;1229;-92
2023/09/30 00:24:03;;;;;;;11.85;5.10;;;;;;;14.88;67.65;101894.44;679798;29;1229;-91
2023/09/30 00:24:24;;;;;;;10.38;4.80;;;;;;;14.86;67.59;101897.03;682538;29;1251;-91
2023/09/30 00:24:46;;;;;;;10.00;4.95;;;;;;;14.89;67.57;101904.13;683215;29;902;-92
2023/09/30 00:25:07;;;;;;;9.48;4.60;;;;;;;14.88;67.57;101899.72;682451;29;1420;-91
2023/09/30 00:25:28;;;;;;;9.95;5.10;;;;;;;14.83;67.39;101893.41;682630;29;1309;-91
2023/09/30 00:25:50;;;;;;;9.80;5.30;;;;;;;14.80;67.42;101897.75;682583;29;1249;-91
2023/09/30 00:26:10;;;;;;;9.40;4.93;;;;;;;14.86;67.39;101904.91;682258;28;1271;-91
2023/09/30 00:26:32;;;;;;;9.07;4.93;;;;;;;14.80;67.37;101891.59;677438;29;1271;-90
2023/09/30 00:26:53;;;;;;;10.05;5.07;;;;;;;14.83;67.66;101893.41;679452;29;1184;-91
2023/09/30 00:27:14;;;;;;;14.40;5.63;;;;;;;14.90;67.70;101908.50;677094;29;1179;-91
2023/09/30 00:27:34;;;;;;;14.50;5.63;;;;;;;14.86;67.58;101898.78;682525;29;1887;-91
2023/09/30 00:27:55;;;;;;;12.37;5.37;;;;;;;14.82;67.62;101899.53;677373;29;1245;-91
2023/09/30 00:28:16;;;;;;;7.72;4.82;;;;;;;14.83;67.50;101901.31;680834;28;1314;-91
2023/09/30 00:28:36;;;;;;;7.45;4.60;;;;;;;14.84;67.78;101903.09;682960;28;1262;-91
2023/09/30 00:28:57;;;;;;;8.80;5.20;;;;;;;14.83;67.61;101898.69;682866;28;1446;-91
2023/09/30 00:29:18;;;;;;;9.95;5.38;;;;;;;14.86;67.54;101904.03;682891;29;1114;-91
2023/09/30 00:29:39;;;;;;;9.60;5.20;;;;;;;14.86;67.52;101914.56;684367;28;1290;-90
2023/09/30 00:30:00;;;;;;;9.45;4.68;;;;;;;14.87;67.70;101908.44;684020;28;1186;-90
2023/09/30 00:30:21;;;;;;;12.05;4.85;;;;;;;14.85;67.61;101899.59;688006;28;1370;-90
2023/09/30 00:30:42;;;;;;;12.85;5.15;;;;;;;14.87;67.41;101908.44;685619;28;1336;-91
2023/09/30 00:31:09;;;;;;;9.55;4.95;;;;;;;14.82;67.65;101899.53;685342;28;1326;-92
2023/09/30 00:31:31;;;;;;;8.35;5.00;;;;;;;14.88;67.72;101899.72;680080;29;1333;-91
2023/09/30 00:31:52;;;;;;;11.07;5.43;;;;;;;14.85;67.72;101891.72;679564;29;1286;-90
2023/09/30 00:32:13;;;;;;;10.90;5.27;;;;;;;14.93;67.90;101912.13;682411;29;1216;-92
2023/09/30 00:32:33;;;;;;;13.75;5.40;;;;;;;14.92;67.57;101906.81;688048;28;1235;-91
2023/09/30 00:32:54;;;;;;;12.00;5.40;;;;;;;14.91;67.73;101905.03;687977;28;1325;-90
2023/09/30 00:33:15;;;;;;;14.85;6.15;;;;;;;14.92;67.93;101901.56;682619;28;1248;-90
2023/09/30 00:33:36;;;;;;;12.95;6.07;;;;;;;14.90;67.29;101898.00;682731;29;1132;-91
2023/09/30 00:33:57;;;;;;;13.05;5.93;;;;;;;14.93;67.64;101906.88;679585;29;1228;-90
2023/09/30 00:34:18;;;;;;;11.88;5.65;;;;;;;14.95;67.46;101912.19;677090;29;1419;-90
2023/09/30 00:34:40;;;;;;;12.88;5.78;;;;;;;14.96;67.60;101908.69;684692;28;1346;-90
2023/09/30 00:35:02;;;;;;;14.73;6.03;;;;;;;14.94;67.37;101907.78;682458;29;1212;-89
2023/09/30 00:35:23;;;;;;;14.45;6.18;;;;;;;14.93;67.66;101903.34;677377;29;1330;-90
2023/09/30 00:35:44;;;;;;;14.43;5.95;;;;;;;14.96;67.55;101913.94;687776;28;1296;-91
2023/09/30 00:36:10;;;;;;;10.30;5.30;;;;;;;14.92;67.63;101906.81;684998;28;1345;-90
2023/09/30 00:36:31;;;;;;;11.52;5.70;;;;;;;14.96;67.57;101908.69;679938;29;1427;-91
2023/09/30 00:36:51;;;;;;;10.80;5.70;;;;;;;14.97;67.60;101926.25;682763;29;1377;-91
2023/09/30 00:37:13;;;;;;;11.53;5.67;;;;;;;14.95;67.61;101917.44;682526;29;1012;-91
2023/09/30 00:37:33;;;;;;;12.05;5.60;;;;;;;14.96;67.46;101916.59;682551;28;1119;-90
2023/09/30 00:37:54;;;;;;;13.20;6.15;;;;;;;14.93;67.51;101919.09;684717;28;1177;-90
2023/09/30 00:38:16;;;;;;;9.52;5.57;;;;;;;14.92;67.36;101912.06;685157;28;1235;-91
2023/09/30 00:38:37;;;;;;;9.70;5.03;;;;;;;14.96;67.45;101929.72;682920;28;781;-89
2023/09/30 00:38:58;;;;;;;9.18;4.85;;;;;;;14.87;67.35;101911.06;682349;28;1193;-91
2023/09/30 00:39:19;;;;;;;10.65;5.50;;;;;;;14.87;67.58;101913.69;682110;29;1271;-90
2023/09/30 00:39:40;;;;;;;10.53;5.93;;;;;;;14.91;67.50;101912.91;685435;28;1241;-91
2023/09/30 00:40:01;;;;;;;10.25;5.95;;;;;;;14.94;67.50;101920.91;684716;28;1354;-89
2023/09/30 00:40:25;;;;;;;12.40;5.97;;;;;;;14.90;67.61;101911.16;685259;28;1388;-89
2023/09/30 00:40:49;;;;;;;13.02;6.13;;;;;;;14.91;67.52;101921.72;685756;28;760;-90
2023/09/30 00:41:10;;;;;;;12.88;6.15;;;;;;;14.94;68.09;101923.53;685836;28;1260;-91
2023/09/30 00:41:31;;;;;;;12.88;6.68;;;;;;;14.87;67.51;101908.44;681223;28;1260;-90
2023/09/30 00:41:52;;;;;;;10.95;6.40;;;;;;;14.89;67.52;101915.50;685081;28;1345;-92
2023/09/30 00:42:13;;;;;;;11.20;6.57;;;;;;;14.89;67.71;101912.00;687346;28;1473;-91
2023/09/30 00:42:34;;;;;;;10.00;6.10;;;;;;;14.89;67.55;101906.75;680069;29;1559;-91
2023/09/30 00:42:55;;;;;;;11.00;6.05;;;;;;;14.91;67.67;101910.28;679949;29;1457;-91
2023/09/30 00:43:20;;;;;;;10.30;5.90;;;;;;;14.83;67.83;101901.31;685322;28;1188;-91
2023/09/30 00:43:41;;;;;;;9.27;5.40;;;;;;;14.93;67.73;101913.84;680315;29;1423;-92
2023/09/30 00:44:02;;;;;;;9.93;5.38;;;;;;;14.87;67.59;101897.94;679859;28;1218;-91
2023/09/30 00:44:23;;;;;;;9.63;5.20;;;;;;;14.87;67.72;101904.06;680218;29;899;-92
2023/09/30 00:44:44;;;;;;;11.32;5.55;;;;;;;14.84;67.74;101898.72;682786;28;1038;-91
2023/09/30 00:45:06;;;;;;;11.90;5.72;;;;;;;14.84;67.75;101898.72;681013;28;1171;-91
2023/09/30 00:45:28;;;;;;;10.93;6.00;;;;;;;14.88;67.84;101904.97;682397;28;1430;-90
2023/09/30 00:45:59;;;;;;;12.10;6.10;;;;;;;14.89;67.77;101906.75;677169;29;1368;-91
2023/09/30 00:46:29;;;;;;;12.50;6.03;;;;;;;14.85;67.69;101902.22;680160;29;1390;-92
2023/09/30 00:46:50;;;;;;;12.70;6.05;;;;;;;14.86;67.40;101897.03;685812;28;1336;-94
2023/09/30 00:47:11;;;;;;;15.13;5.93;;;;;;;14.83;67.82;101901.31;688176;28;1206;-93
2023/09/30 00:47:33;;;;;;;14.07;5.63;;;;;;;14.83;67.77;101898.69;682128;28;1969;-92
2023/09/30 00:47:55;;;;;;;14.32;5.53;;;;;;;14.85;67.82;101899.59;682296;29;1155;-93
2023/09/30 00:48:16;;;;;;;10.05;5.32;;;;;;;14.83;67.88;101896.03;683676;28;1225;-92
2023/09/30 00:48:39;;;;;;;13.93;5.70;;;;;;;14.83;67.91;101890.78;684781;28;1192;-91
2023/09/30 00:49:02;;;;;;;13.52;5.63;;;;;;;14.89;67.99;101912.88;677069;29;1234;-92
2023/09/30 00:49:25;;;;;;;15.13;6.50;;;;;;;14.83;67.75;101901.31;683346;28;1405;-92
2023/09/30 00:49:45;;;;;;;11.10;6.63;;;;;;;14.82;67.65;101899.53;685396;28;1485;-92
2023/09/30 00:50:08;;;;;;;10.15;6.32;;;;;;;14.81;67.75;101898.63;679869;29;1210;-92
2023/09/30 00:50:29;;;;;;;9.93;5.40;;;;;;;14.87;67.69;101911.94;680131;29;1303;-92
2023/09/30 00:50:49;;;;;;;9.82;5.50;;;;;;;14.91;67.87;101911.19;680367;29;1210;-91
2023/09/30 00:51:11;;;;;;;13.33;5.57;;;;;;;14.84;67.85;101906.63;685083;28;1253;-92
2023/09/30 00:51:33;;;;;;;13.75;5.72;;;;;;;14.81;67.78;101893.38;682240;29;1260;-92
2023/09/30 00:51:55;;;;;;;15.15;6.10;;;;;;;14.93;67.79;101914.75;678623;29;1386;-92
2023/09/30 00:52:18;;;;;;;12.43;6.30;;;;;;;14.85;67.77;101896.97;685167;28;1395;-91
2023/09/30 00:52:39;;;;;;;12.40;6.25;;;;;;;14.90;68.04;101905.88;680020;29;1304;-92
2023/09/30 00:53:00;;;;;;;14.23;6.07;;;;;;;14.89;68.00;101901.47;685367;28;1360;-93
2023/09/30 00:53:21;;;;;;;14.43;5.80;;;;;;;14.91;68.02;101900.69;684109;28;1263;-92
2023/09/30 00:53:42;;;;;;;12.20;5.40;;;;;;;14.93;68.07;101911.22;682861;29;1490;-92
2023/09/30 00:54:03;;;;;;;12.48;5.25;;;;;;;14.87;68.06;101890.03;680717;29;1255;-92
2023/09/30 00:54:26;;;;;;;11.85;5.40;;;;;;;14.91;67.86;101892.81;685108;28;1448;-92
2023/09/30 00:54:48;;;;;;;9.60;5.95;;;;;;;14.91;67.81;101897.16;682568;29;1378;-91
2023/09/30 00:55:10;;;;;;;9.00;5.78;;;;;;;14.94;67.99;101906.00;682384;29;1354;-92
2023/09/30 00:55:32;;;;;;;8.82;5.38;;;;;;;14.90;67.89;101898.91;680065;29;1266;-94
2023/09/30 00:55:54;;;;;;;7.80;5.00;;;;;;;14.92;67.90;101891.03;688247;28;1365;-92
2023/09/30 00:56:18;;;;;;;7.65;4.80;;;;;;;14.91;67.87;101895.44;687730;28;1191;-93
2023/09/30 00:56:46;;;;;;;7.30;4.75;;;;;;;14.98;67.96;101907.00;680258;29;1385;-92
2023/09/30 00:57:07;;;;;;;10.55;5.25;;;;;;;14.94;67.83;101902.50;687943;28;1237;-93
2023/09/30 00:57:29;;;;;;;12.93;5.40;;;;;;;14.93;67.83;101896.34;683096;28;1313;-93
2023/09/30 00:57:50;;;;;;;13.90;5.70;;;;;;;14.95;67.73;101901.66;679643;29;1315;-93
2023/09/30 00:58:11;;;;;;;9.93;5.70;;;;;;;14.98;67.89;101914.88;682362;29;1351;-92
2023/09/30 00:58:35;;;;;;;8.95;5.65;;;;;;;15.00;67.83;101915.81;682564;29;1285;-93
2023/09/30 00:58:56;;;;;;;9.65;5.72;;;;;;;14.97;67.83;101909.56;681850;29;1449;-92
2023/09/30 01:00:03;;;;;;;13.10;5.77;;;;;;;15.06;67.78;101918.59;685274;28;1285;-92
2023/09/30 01:00:25;;;;;;;10.80;5.60;;;;;;;15.04;67.60;101922.03;681836;29;1216;-91
2023/09/30 01:00:47;;;;;;;13.00;5.60;;;;;;;14.97;67.68;101899.06;680261;29;1302;-91
2023/09/30 01:01:09;;;;;;;13.38;5.90;;;;;;;15.00;67.87;101904.41;676888;29;1219;-92
2023/09/30 01:01:30;;;;;;;11.85;6.00;;;;;;;15.01;67.84;101904.44;677472;29;1392;-93
2023/09/30 01:01:50;;;;;;;8.82;5.88;;;;;;;15.02;67.67;101905.34;682610;29;1218;-93
2023/09/30 01:02:11;;;;;;;9.90;5.50;;;;;;;14.97;67.82;101894.69;681460;29;1205;-93
2023/09/30 01:02:34;;;;;;;12.13;5.73;;;;;;;15.05;67.78;101908.94;682611;29;1319;-92
2023/09/30 01:02:54;;;;;;;12.07;5.68;;;;;;;15.00;67.74;101897.41;682511;29;1233;-92
2023/09/30 01:03:15;;;;;;;11.45;6.05;;;;;;;15.00;67.57;101893.91;677265;29;1047;-91
2023/09/30 01:03:37;;;;;;;10.90;6.10;;;;;;;15.06;67.95;101896.72;677673;29;1152;-92
2023/09/30 01:03:58;;;;;;;12.60;6.10;;;;;;;14.98;67.88;101885.09;682398;29;1333;-93
2023/09/30 01:04:20;;;;;;;14.38;5.80;;;;;;;14.98;67.86;101885.97;679859;29;1360;-92
2023/09/30 01:04:41;;;;;;;18.20;6.10;;;;;;;15.04;67.83;101887.88;680266;29;1392;-93
2023/09/30 01:05:03;;;;;;;16.92;6.03;;;;;;;15.01;67.80;101891.28;679660;29;1381;-92
2023/09/30 01:05:24;;;;;;;14.23;6.20;;;;;;;14.98;68.07;101875.44;682623;29;1411;-92
2023/09/30 01:05:45;;;;;;;11.20;6.00;;;;;;;15.03;67.84;101888.72;685579;28;881;-92
2023/09/30 01:06:06;;;;;;;10.95;6.10;;;;;;;15.03;67.89;101879.09;687628;28;1332;-92
2023/09/30 01:08:02;;;;;;;15.77;6.57;;;;;;;15.02;67.96;101872.06;680912;29;1276;-92
2023/09/30 01:08:23;;;;;;;11.15;6.40;;;;;;;14.98;67.92;101870.19;682594;29;1353;-92
2023/09/30 01:08:45;;;;;;;11.93;6.15;;;;;;;15.01;67.86;101870.25;679728;29;1420;-92
2023/09/30 01:09:05;;;;;;;11.30;6.03;;;;;;;15.01;67.76;101872.88;676966;29;1237;-91
2023/09/30 01:09:27;;;;;;;10.70;5.80;;;;;;;15.06;67.72;101887.06;685265;28;1096;-92
2023/09/30 01:09:50;;;;;;;11.23;6.43;;;;;;;14.97;67.85;101863.16;685677;28;880;-92
2023/09/30 01:10:11;;;;;;;11.35;6.57;;;;;;;14.95;67.86;101870.13;685128;28;1416;-91
2023/09/30 01:10:32;;;;;;;14.05;6.70;;;;;;;14.99;67.89;101874.59;685471;28;1694;-92
2023/09/30 01:10:53;;;;;;;15.63;6.55;;;;;;;14.95;67.89;101872.75;682692;29;1162;-92
2023/09/30 01:11:15;;;;;;;16.88;6.30;;;;;;;15.02;67.82;101881.69;682725;28;1169;-92
2023/09/30 01:11:36;;;;;;;13.40;5.80;;;;;;;14.95;67.73;101875.38;674532;29;1412;-93
2023/09/30 01:11:57;;;;;;;11.52;5.57;;;;;;;15.00;67.81;101889.50;677564;29;1349;-93
2023/09/30 01:12:18;;;;;;;11.88;5.55;;;;;;;14.98;68.02;101877.22;685377;28;1330;-93
2023/09/30 01:12:38;;;;;;;11.95;5.68;;;;;;;14.96;67.87;101882.41;685750;28;1169;-92
2023/09/30 01:12:59;;;;;;;13.40;5.78;;;;;;;14.96;67.96;101877.16;684558;28;1286;-91
2023/09/30 01:13:20;;;;;;;10.88;5.72;;;;;;;15.00;67.74;101889.50;682630;29;1301;-92
2023/09/30 01:13:43;;;;;;;11.63;6.03;;;;;;;14.98;67.86;101885.97;677523;29;1168;-91
2023/09/30 01:14:03;;;;;;;13.82;6.50;;;;;;;14.98;68.04;101885.97;680787;29;1333;-91
2023/09/30 01:14:28;;;;;;;14.40;6.60;;;;;;;14.99;67.96;101892.13;685345;28;1257;-91
2023/09/30 01:14:49;;;;;;;12.88;6.25;;;;;;;14.91;67.97;101889.25;685621;28;826;-91
2023/09/30 01:15:10;;;;;;;13.25;6.43;;;;;;;15.04;67.94;101904.53;679655;29;1320;-92
2023/09/30 01:15:31;;;;;;;13.70;6.80;;;;;;;14.94;68.01;101884.13;685322;28;1226;-92
2023/09/30 01:15:52;;;;;;;15.30;7.15;;;;;;;14.97;67.90;101896.44;680247;29;1511;-92
2023/09/30 01:16:13;;;;;;;13.27;6.95;;;;;;;14.98;68.00;101896.47;684858;28;1196;-93
2023/09/30 01:16:33;;;;;;;13.98;6.70;;;;;;;14.99;67.84;101898.25;688060;28;1203;-92
2023/09/30 01:16:56;;;;;;;13.10;6.32;;;;;;;14.96;67.84;101886.75;682643;29;1305;-92
2023/09/30 01:17:18;;;;;;;17.35;6.50;;;;;;;15.03;68.15;101905.41;682926;28;1214;-90
2023/09/30 01:17:39;;;;;;;15.05;6.30;;;;;;;15.00;68.06;101897.41;685530;28;1231;-91
2023/09/30 01:17:59;;;;;;;17.95;6.47;;;;;;;14.90;68.15;101887.50;684704;28;1188;-91
2023/09/30 01:18:21;;;;;;;15.25;6.72;;;;;;;15.04;68.00;101916.78;685531;28;1213;-92
2023/09/30 01:18:42;;;;;;;14.95;6.88;;;;;;;14.98;67.81;101890.34;682913;29;1520;-91
2023/09/30 01:19:03;;;;;;;12.38;6.63;;;;;;;15.01;67.96;101907.06;682976;28;1402;-93
2023/09/30 01:19:25;;;;;;;11.93;6.28;;;;;;;14.97;67.99;101894.69;682602;28;1340;-93
2023/09/30 01:19:46;;;;;;;11.35;6.28;;;;;;;14.96;67.84;101898.19;685318;28;1299;-92
2023/09/30 01:20:08;;;;;;;11.00;6.38;;;;;;;14.99;67.87;101887.75;682284;28;1296;-92
2023/09/30 01:20:30;;;;;;;13.43;6.70;;;;;;;14.95;68.04;101891.16;680168;29;1227;-94
2023/09/30 01:20:52;;;;;;;15.75;6.40;;;;;;;15.00;67.64;101900.03;682587;28;1283;-92
2023/09/30 01:21:13;;;;;;;17.73;6.50;;;;;;;15.00;67.97;101902.66;679481;29;1408;-92
2023/09/30 01:21:35;;;;;;;14.27;6.57;;;;;;;14.97;67.67;101902.59;682487;29;1230;-92
2023/09/30 01:22:05;;;;;;;12.48;6.30;;;;;;;14.99;67.97;101900.88;683254;28;1227;-93
2023/09/30 01:22:28;;;;;;;13.85;6.63;;;;;;;15.00;67.64;101901.78;678787;29;1276;-91
2023/09/30 01:22:50;;;;;;;14.93;6.55;;;;;;;15.01;67.72;101907.06;680211;29;1358;-92
2023/09/30 01:23:11;;;;;;;15.38;7.40;;;;;;;14.99;67.96;101903.50;679655;29;1077;-91
2023/09/30 01:23:33;;;;;;;18.10;7.28;;;;;;;14.95;68.04;101896.41;682243;29;1270;-92
2023/09/30 01:23:54;;;;;;;16.58;6.93;;;;;;;15.04;67.81;101915.06;682476;29;1353;-92
2023/09/30 01:24:15;;;;;;;13.57;6.40;;;;;;;15.02;67.78;101911.50;685143;28;1495;-92
2023/09/30 01:24:42;;;;;;;12.32;6.70;;;;;;;15.04;67.98;101907.16;685248;28;1214;-91
2023/09/30 01:25:05;;;;;;;13.30;7.00;;;;;;;15.03;68.05;101912.38;684149;28;1385;-93
2023/09/30 01:25:27;;;;;;;14.18;6.95;;;;;;;14.99;67.89;101902.63;685073;28;1651;-92
2023/09/30 01:25:49;;;;;;;17.10;6.60;;;;;;;14.99;67.95;101902.63;682290;29;1258;-91
2023/09/30 01:26:14;;;;;;;15.25;6.57;;;;;;;15.00;67.94;101889.50;681425;29;1317;-91
2023/09/30 01:26:35;;;;;;;16.90;6.70;;;;;;;15.00;68.11;101900.03;682714;29;1201;-92
2023/09/30 01:26:57;;;;;;;14.07;6.50;;;;;;;15.03;67.98;101908.03;682186;29;1197;-93
2023/09/30 01:27:19;;;;;;;11.02;6.00;;;;;;;15.03;67.93;101894.88;682663;29;1213;-92
2023/09/30 01:27:40;;;;;;;13.88;6.57;;;;;;;15.01;68.03;101896.56;682529;29;1973;-92
2023/09/30 01:28:06;;;;;;;15.48;6.72;;;;;;;15.00;67.89;101888.66;684359;28;1220;-92
2023/09/30 01:28:27;;;;;;;15.25;6.30;;;;;;;15.05;67.83;101897.53;685276;28;1284;-92
2023/09/30 01:28:48;;;;;;;13.60;6.28;;;;;;;15.06;68.02;101899.34;681772;29;1235;-92
2023/09/30 01:29:12;;;;;;;10.32;6.10;;;;;;;15.00;67.94;101886.88;679402;29;1236;-92
2023/09/30 01:29:32;;;;;;;11.13;6.65;;;;;;;15.02;67.82;101892.19;682022;29;1232;-92
2023/09/30 01:29:53;;;;;;;10.57;6.45;;;;;;;15.04;67.84;101887.88;677245;29;1311;-92
2023/09/30 01:30:15;;;;;;;12.45;6.53;;;;;;;14.99;67.97;101879.84;682111;29;1269;-93
2023/09/30 01:30:36;;;;;;;11.65;6.18;;;;;;;15.07;67.72;101895.84;682690;28;1214;-92
2023/09/30 01:30:57;;;;;;;11.43;6.40;;;;;;;15.03;67.73;101889.63;685249;28;1170;-91
2023/09/30 01:31:17;;;;;;;9.55;6.50;;;;;;;15.03;67.91;101892.25;684903;28;1124;-92
2023/09/30 01:31:39;;;;;;;10.50;6.50;;;;;;;15.00;68.07;101886.88;682422;28;1142;-92
2023/09/30 01:32:00;;;;;;;11.95;6.50;;;;;;;15.05;67.77;101887.00;680291;28;1274;-92
2023/09/30 01:32:21;;;;;;;15.32;6.47;;;;;;;15.07;67.73;101895.84;682469;29;1152;-92
2023/09/30 01:32:43;;;;;;;15.52;6.70;;;;;;;15.00;67.78;101884.25;684812;28;1426;-93
2023/09/30 01:33:05;;;;;;;12.07;6.10;;;;;;;15.04;67.95;101896.66;679296;29;1495;-92
2023/09/30 01:33:26;;;;;;;12.90;6.38;;;;;;;15.04;67.99;101895.75;685499;28;990;-93
2023/09/30 01:33:48;;;;;;;16.10;6.55;;;;;;;15.03;68.02;101887.00;685436;28;1417;-93
2023/09/30 01:34:10;;;;;;;17.45;7.10;;;;;;;15.01;67.93;101882.53;687033;28;1832;-93
2023/09/30 01:34:31;;;;;;;18.83;7.57;;;;;;;15.01;68.04;101883.41;678344;29;1284;-93
2023/09/30 01:34:51;;;;;;;13.45;7.00;;;;;;;15.04;67.95;101886.13;682727;28;1272;-93
2023/09/30 01:35:12;;;;;;;15.43;6.90;;;;;;;15.07;68.17;101895.84;681851;29;1214;-94
2023/09/30 01:35:34;;;;;;;12.93;6.45;;;;;;;15.04;68.02;101883.50;685369;28;1385;-93
2023/09/30 01:35:55;;;;;;;15.55;6.93;;;;;;;15.06;67.90;101894.06;680092;29;1261;-91
2023/09/30 01:36:17;;;;;;;13.45;6.78;;;;;;;15.03;68.10;101888.72;682101;29;1310;-92
2023/09/30 01:36:38;;;;;;;14.52;6.70;;;;;;;15.07;67.79;101894.09;680202;29;1283;-92
2023/09/30 01:36:59;;;;;;;10.57;6.22;;;;;;;15.04;67.85;101890.50;676616;29;1151;-92
2023/09/30 01:37:20;;;;;;;11.30;6.03;;;;;;;15.02;68.12;101887.84;676829;29;1265;-91
2023/09/30 01:37:41;;;;;;;12.40;5.80;;;;;;;15.03;67.85;101888.72;677498;29;1349;-92
2023/09/30 01:38:03;;;;;;;12.75;5.80;;;;;;;14.99;67.73;101893.00;679509;29;1384;-93
2023/09/30 01:38:24;;;;;;;13.90;6.25;;;;;;;14.97;67.89;101883.28;679870;29;1245;-92
2023/09/30 01:38:45;;;;;;;15.10;7.20;;;;;;;15.04;68.05;101903.63;680031;29;1225;-92
2023/09/30 01:39:07;;;;;;;15.48;7.60;;;;;;;15.02;67.99;101901.00;682068;29;1400;-94
2023/09/30 01:39:28;;;;;;;14.48;7.40;;;;;;;15.01;67.94;101893.91;680049;29;1392;-93
2023/09/30 01:39:50;;;;;;;15.25;6.97;;;;;;;15.02;67.72;101900.09;684422;28;1404;-91
2023/09/30 01:40:11;;;;;;;15.15;6.60;;;;;;;14.96;67.97;101898.19;685955;28;1251;-93
2023/09/30 01:40:32;;;;;;;15.40;6.45;;;;;;;14.99;67.84;101900.88;684684;28;1264;-92
2023/09/30 01:40:54;;;;;;;10.93;5.80;;;;;;;14.94;68.00;101899.88;687898;28;1264;-91
2023/09/30 01:41:16;;;;;;;10.77;5.95;;;;;;;14.99;67.97;101903.50;685101;28;1335;-93
2023/09/30 01:41:42;;;;;;;12.23;6.43;;;;;;;14.94;67.90;101894.63;682457;28;1324;-92
2023/09/30 01:42:03;;;;;;;12.20;6.57;;;;;;;14.97;67.98;101899.97;677025;29;1265;-91
2023/09/30 01:42:26;;;;;;;9.65;6.22;;;;;;;14.92;68.04;101899.84;677240;29;1388;-91
2023/09/30 01:42:47;;;;;;;10.85;6.35;;;;;;;14.91;67.84;101895.44;680215;29;1091;-91
2023/09/30 01:43:08;;;;;;;12.63;6.70;;;;;;;14.93;68.33;101900.72;679665;29;1174;-92
2023/09/30 01:43:30;;;;;;;14.55;7.03;;;;;;;14.89;67.93;101893.59;682899;29;1202;-93
2023/09/30 01:43:50;;;;;;;14.30;6.70;;;;;;;14.97;68.12;101907.84;682379;29;1385;-92
2023/09/30 01:44:11;;;;;;;13.20;6.50;;;;;;;14.92;68.09;101891.94;685243;28;1163;-93